Time;durP1;ratioP1;P1;durP2;ratioP2;P2;SDS_P1;SDS_P2;PMS_P1;PMS_P2;Temp;Humidity;BMP_temperature;BMP_pressure;BME280_temperature;BME280_humidity;BME280_pressure;Samples;Min_cycle;Max_cycle;Signal;HPM_P1;HPM_P2
2023/09/20 00:02:21;;;;;;;8.65;2.83;;;;;;;16.70;87.62;100834.59;5049346;28;20044;-51
2023/09/20 00:04:47;;;;;;;8.38;2.97;;;;;;;16.66;88.51;100830.56;5040118;28;20044;-51
2023/09/20 00:07:13;;;;;;;7.18;2.67;;;;;;;16.64;88.48;100837.94;5046278;28;20030;-50
2023/09/20 00:09:39;;;;;;;9.07;2.97;;;;;;;16.60;88.68;100836.56;5047002;28;20498;-50
2023/09/20 00:12:04;;;;;;;7.90;2.42;;;;;;;16.58;88.97;100831.34;5055235;28;20037;-51
2023/09/20 00:14:30;;;;;;;8.77;2.88;;;;;;;16.51;89.14;100832.97;5045026;28;20031;-52
2023/09/20 00:16:55;;;;;;;7.68;2.38;;;;;;;16.51;89.21;100824.09;5044732;28;20021;-52
2023/09/20 00:19:21;;;;;;;6.07;2.25;;;;;;;16.45;89.36;100826.41;5051194;28;20096;-52
2023/09/20 00:21:46;;;;;;;8.38;2.47;;;;;;;16.43;90.00;100828.38;5050067;28;20115;-50
2023/09/20 00:24:12;;;;;;;8.32;2.63;;;;;;;16.37;89.56;100829.03;5048412;28;20096;-51
2023/09/20 00:26:37;;;;;;;7.72;2.42;;;;;;;16.35;90.55;100822.13;5045236;28;20094;-51
2023/09/20 00:29:05;;;;;;;8.15;2.65;;;;;;;16.31;90.41;100826.97;5051613;28;20444;-50
2023/09/20 00:31:34;;;;;;;8.83;2.63;;;;;;;16.30;90.86;100813.72;5043226;28;20112;-50
2023/09/20 00:34:03;;;;;;;7.88;2.85;;;;;;;16.27;91.10;100820.25;5043979;28;20677;-52
2023/09/20 00:36:28;;;;;;;12.32;3.30;;;;;;;16.24;91.28;100823.22;5043695;28;20395;-50
2023/09/20 00:38:57;;;;;;;9.80;2.78;;;;;;;16.20;91.11;100820.00;5044636;28;20025;-51
2023/09/20 00:41:22;;;;;;;8.35;2.67;;;;;;;16.18;91.33;100811.28;5042481;28;20033;-50
2023/09/20 00:43:47;;;;;;;9.45;2.40;;;;;;;16.17;91.85;100817.66;5045256;28;20051;-50
2023/09/20 00:46:13;;;;;;;11.88;3.03;;;;;;;16.14;92.12;100806.38;5045465;28;20040;-50
2023/09/20 00:48:39;;;;;;;7.72;2.53;;;;;;;16.14;91.92;100811.75;5052864;28;20108;-51
2023/09/20 00:51:06;;;;;;;5.35;2.30;;;;;;;16.11;92.52;100809.38;5052810;28;20028;-51
2023/09/20 00:53:32;;;;;;;7.82;2.45;;;;;;;16.11;92.34;100804.03;5044144;28;20061;-51
2023/09/20 00:55:58;;;;;;;6.35;2.97;;;;;;;16.11;92.28;100810.22;5049505;28;20051;-52
2023/09/20 00:58:24;;;;;;;6.88;2.13;;;;;;;16.11;93.38;100812.06;5052037;28;20057;-51
2023/09/20 01:00:54;;;;;;;6.45;2.45;;;;;;;16.10;93.08;100811.22;5050518;28;20043;-51
2023/09/20 01:03:19;;;;;;;;;;;;;;;16.18;91.07;100813.13;5050231;28;21318;-51
2023/09/20 01:05:46;;;;;;;7.75;2.40;;;;;;;16.10;92.65;100813.88;5035488;28;19953;-52
2023/09/20 01:08:12;;;;;;;6.68;2.55;;;;;;;16.08;93.14;100816.72;5044844;28;20084;-51
2023/09/20 01:10:37;;;;;;;8.93;2.63;;;;;;;16.08;93.08;100815.88;5042194;28;20162;-51
2023/09/20 01:13:05;;;;;;;5.78;2.75;;;;;;;16.07;93.10;100817.72;5041978;28;20479;-50
2023/09/20 01:15:32;;;;;;;9.90;2.80;;;;;;;16.06;93.21;100813.34;5051409;28;20489;-51
2023/09/20 01:17:59;;;;;;;6.35;2.65;;;;;;;16.06;93.19;100810.69;5044949;28;20030;-51
2023/09/20 01:20:42;;;;;;;5.45;2.17;;;;;;;16.09;93.12;100798.81;5045413;28;20108;-50
2023/09/20 01:23:07;;;;;;;6.47;2.30;;;;;;;16.03;93.95;100802.94;5041883;28;20033;-51
2023/09/20 01:25:42;;;;;;;9.02;3.30;;;;;;;16.04;94.22;100806.50;5047051;28;20044;-51
2023/09/20 01:28:09;;;;;;;7.18;2.47;;;;;;;16.04;94.37;100793.94;5052437;28;20031;-51
2023/09/20 01:30:40;;;;;;;6.38;2.60;;;;;;;16.02;94.33;100795.94;5047329;28;20026;-50
2023/09/20 01:33:09;;;;;;;5.20;2.42;;;;;;;16.02;94.88;100795.06;5046820;28;20108;-50
2023/09/20 01:35:36;;;;;;;9.25;2.60;;;;;;;16.01;94.77;100786.19;5047723;28;20597;-51
2023/09/20 01:38:06;;;;;;;9.85;2.90;;;;;;;16.00;94.93;100787.19;5048544;28;20427;-50
2023/09/20 01:40:33;;;;;;;4.88;2.47;;;;;;;16.01;94.59;100788.88;5043174;28;20112;-50
2023/09/20 01:42:59;;;;;;;7.70;2.45;;;;;;;16.01;94.83;100783.50;5051615;28;20108;-52
2023/09/20 01:45:25;;;;;;;6.03;2.35;;;;;;;16.02;94.82;100787.88;5053010;28;20332;-52
2023/09/20 01:47:54;;;;;;;6.05;2.70;;;;;;;16.01;95.01;100782.69;5050577;28;20029;-51
2023/09/20 01:50:24;;;;;;;8.73;2.70;;;;;;;16.02;95.16;100781.66;5049426;28;20039;-51
2023/09/20 01:52:54;;;;;;;8.50;2.42;;;;;;;16.02;95.40;100774.50;5050262;28;20021;-53
2023/09/20 01:55:21;;;;;;;6.82;2.72;;;;;;;16.05;95.35;100776.88;5042854;28;20490;-51
2023/09/20 01:57:48;;;;;;;8.43;2.90;;;;;;;16.06;95.17;100775.03;5048738;28;20021;-51
2023/09/20 02:00:29;;;;;;;6.38;2.47;;;;;;;16.11;95.24;100782.59;5049468;28;20018;-51
2023/09/20 02:03:00;;;;;;;8.82;2.67;;;;;;;16.14;95.48;100771.53;5050606;28;20040;-52
2023/09/20 02:05:26;;;;;;;8.43;2.33;;;;;;;16.15;95.76;100767.88;5049170;28;20033;-53
2023/09/20 02:07:54;;;;;;;7.07;2.80;;;;;;;16.17;95.74;100761.38;5046133;28;20025;-53
2023/09/20 02:10:21;;;;;;;4.22;2.30;;;;;;;16.20;95.90;100761.03;5055401;28;20043;-50
2023/09/20 02:12:54;;;;;;;5.25;2.60;;;;;;;16.16;94.92;100742.78;5047559;28;20025;-51
2023/09/20 02:15:20;;;;;;;6.40;3.10;;;;;;;16.26;95.04;100763.09;5054018;28;20127;-51
2023/09/20 02:17:46;;;;;;;11.30;2.90;;;;;;;16.29;95.75;100756.59;5055271;28;20037;-52
2023/09/20 02:20:19;;;;;;;7.28;2.45;;;;;;;16.31;94.95;100757.28;5053604;28;20029;-51
2023/09/20 02:22:44;;;;;;;8.18;3.17;;;;;;;16.33;95.18;100755.28;5050236;28;20036;-52
2023/09/20 02:25:11;;;;;;;8.00;2.42;;;;;;;16.36;94.85;100752.28;5047550;28;20036;-51
2023/09/20 02:27:41;;;;;;;11.27;3.25;;;;;;;16.37;94.99;100745.94;5048133;28;20524;-52
2023/09/20 02:30:09;;;;;;;6.45;2.50;;;;;;;16.41;94.44;100746.47;5051336;28;20094;-54
2023/09/20 02:32:35;;;;;;;11.48;2.80;;;;;;;16.40;95.31;100739.41;5048626;28;20028;-52
2023/09/20 02:35:03;;;;;;;7.70;2.47;;;;;;;16.42;94.67;100743.63;5049957;28;20029;-52
2023/09/20 02:37:29;;;;;;;7.88;2.53;;;;;;;16.43;94.96;100744.47;5046037;28;20505;-50
2023/09/20 02:39:54;;;;;;;8.32;2.63;;;;;;;16.45;95.38;100754.03;5053795;28;20029;-52
2023/09/20 02:42:22;;;;;;;7.22;2.47;;;;;;;16.46;95.33;100738.78;5047051;28;20025;-51
2023/09/20 02:44:48;;;;;;;7.53;2.90;;;;;;;16.47;94.73;100735.13;5046399;28;20048;-52
2023/09/20 02:47:13;;;;;;;8.52;2.50;;;;;;;16.46;94.70;100734.25;5053378;28;20025;-52
2023/09/20 02:49:40;;;;;;;6.30;2.58;;;;;;;16.46;94.86;100730.75;5045925;28;20074;-50
2023/09/20 02:52:05;;;;;;;6.75;2.78;;;;;;;16.44;95.10;100727.38;5054541;28;20032;-51
2023/09/20 02:54:31;;;;;;;8.82;3.00;;;;;;;16.43;95.06;100723.00;5050034;28;20391;-51
2023/09/20 02:56:56;;;;;;;8.10;2.80;;;;;;;16.43;94.89;100720.31;5048319;28;20071;-52
2023/09/20 02:59:21;;;;;;;10.30;2.70;;;;;;;16.40;95.11;100720.63;5048554;28;20021;-52
2023/09/20 03:01:49;;;;;;;9.40;3.67;;;;;;;16.38;95.54;100715.44;5050733;28;20029;-50
2023/09/20 03:04:14;;;;;;;5.30;2.67;;;;;;;16.38;95.21;100718.13;5050481;28;20055;-53
2023/09/20 03:06:40;;;;;;;6.53;2.63;;;;;;;16.34;95.01;100716.75;5046303;28;20156;-51
2023/09/20 03:09:06;;;;;;;11.15;3.38;;;;;;;16.34;95.67;100718.63;5046076;28;20096;-51
2023/09/20 03:11:35;;;;;;;9.23;3.00;;;;;;;16.31;96.22;100710.88;5046044;28;20064;-50
2023/09/20 03:14:08;;;;;;;9.70;3.53;;;;;;;16.27;95.89;100711.19;5040927;28;20070;-51
2023/09/20 03:16:34;;;;;;;9.15;3.00;;;;;;;16.24;96.26;100713.34;5042148;28;20044;-50
2023/09/20 03:19:00;;;;;;;9.60;3.28;;;;;;;16.22;96.49;100710.84;5054178;28;20017;-51
2023/09/20 03:21:26;;;;;;;10.32;3.20;;;;;;;16.20;96.76;100698.56;5046461;28;20029;-51
2023/09/20 03:23:52;;;;;;;8.40;2.95;;;;;;;16.17;96.84;100694.38;5052172;28;20499;-51
2023/09/20 03:26:18;;;;;;;8.15;2.83;;;;;;;16.17;96.47;100694.38;5048151;28;20029;-51
2023/09/20 03:28:46;;;;;;;12.88;2.83;;;;;;;16.13;96.97;100695.69;5050445;28;20585;-51
2023/09/20 03:31:12;;;;;;;8.00;3.05;;;;;;;16.11;97.29;100691.50;5051936;28;20034;-51
2023/09/20 03:33:38;;;;;;;9.48;3.15;;;;;;;16.06;97.32;100690.13;5048462;28;20037;-51
2023/09/20 03:36:15;;;;;;;10.77;2.83;;;;;;;16.02;97.06;100702.16;5050293;28;20029;-51
2023/09/20 03:38:40;;;;;;;8.77;2.35;;;;;;;15.99;98.21;100710.50;5055253;28;20025;-49
2023/09/20 03:41:07;;;;;;;7.38;2.65;;;;;;;15.95;97.75;100711.81;5045628;28;20040;-50
2023/09/20 03:43:32;;;;;;;6.93;2.83;;;;;;;15.94;98.33;100701.25;5047365;28;20049;-51
2023/09/20 03:45:58;;;;;;;9.18;3.03;;;;;;;15.89;98.36;100702.56;5043161;28;20056;-51
2023/09/20 03:48:23;;;;;;;9.32;3.08;;;;;;;15.87;98.55;100701.03;5043735;28;20027;-51
2023/09/20 03:50:49;;;;;;;7.32;2.50;;;;;;;15.84;98.32;100706.72;5042588;28;20026;-51
2023/09/20 03:53:15;;;;;;;6.65;2.95;;;;;;;15.81;98.38;100709.69;5051126;28;20509;-50
2023/09/20 03:55:40;;;;;;;8.35;2.33;;;;;;;15.79;98.45;100706.34;5048579;28;20041;-50
2023/09/20 03:58:06;;;;;;;7.07;2.50;;;;;;;15.75;99.13;100699.56;5042050;28;20381;-50
2023/09/20 04:00:31;;;;;;;7.30;2.75;;;;;;;15.73;99.27;100702.41;5046257;28;20041;-52
2023/09/20 04:02:57;;;;;;;7.28;2.92;;;;;;;15.70;99.35;100703.56;5050799;28;20040;-51
2023/09/20 04:05:24;;;;;;;9.15;3.00;;;;;;;15.66;99.67;100699.50;5043253;28;20097;-51
2023/09/20 04:07:49;;;;;;;7.30;2.47;;;;;;;15.63;100.00;100702.47;5044150;28;20028;-51
2023/09/20 04:10:16;;;;;;;6.72;2.88;;;;;;;15.61;100.00;100701.78;5046888;28;20033;-54
2023/09/20 04:12:41;;;;;;;7.30;2.80;;;;;;;15.61;100.00;100700.97;5043470;28;20021;-50
2023/09/20 04:15:10;;;;;;;8.05;2.58;;;;;;;15.56;100.00;100697.91;5041875;28;20497;-52
2023/09/20 04:17:36;;;;;;;;;;;;;;;15.63;98.36;100698.97;5050495;28;20486;-51
2023/09/20 04:20:05;;;;;;;10.18;2.90;;;;;;;15.52;100.00;100689.31;5050013;28;19967;-53
2023/09/20 04:22:31;;;;;;;8.57;3.20;;;;;;;15.47;100.00;100684.44;5045156;28;20029;-51
2023/09/20 04:24:58;;;;;;;7.85;2.70;;;;;;;15.47;100.00;100681.78;5043471;28;20029;-51
2023/09/20 04:27:23;;;;;;;9.27;3.08;;;;;;;15.45;100.00;100688.25;5049353;28;20111;-51
2023/09/20 04:29:49;;;;;;;7.70;3.60;;;;;;;15.44;100.00;100678.56;5043640;28;20112;-51
2023/09/20 04:32:16;;;;;;;9.88;3.63;;;;;;;15.40;100.00;100677.19;5047999;28;20029;-51
2023/09/20 04:34:41;;;;;;;8.10;2.60;;;;;;;15.36;100.00;100672.13;5052873;28;20020;-51
2023/09/20 04:37:07;;;;;;;7.07;2.75;;;;;;;15.33;100.00;100668.91;5048900;28;20082;-52
2023/09/20 04:39:32;;;;;;;9.48;3.10;;;;;;;15.31;100.00;100653.00;5049672;28;20041;-51
2023/09/20 04:41:57;;;;;;;10.60;3.20;;;;;;;15.31;100.00;100661.03;5056428;28;20083;-51
2023/09/20 04:44:23;;;;;;;9.52;2.80;;;;;;;15.27;100.00;100648.13;5048978;28;20051;-51
2023/09/20 04:46:48;;;;;;;7.05;3.20;;;;;;;15.26;100.00;100660.66;5057171;28;20021;-51
2023/09/20 04:49:14;;;;;;;6.38;2.85;;;;;;;15.26;100.00;100662.50;5045678;28;20066;-50
2023/09/20 04:51:40;;;;;;;9.25;3.05;;;;;;;15.24;100.00;100664.47;5054793;28;20028;-51
2023/09/20 04:54:07;;;;;;;11.20;3.67;;;;;;;15.21;100.00;100664.81;5052080;28;20379;-51
2023/09/20 04:56:32;;;;;;;8.23;2.78;;;;;;;15.20;100.00;100660.44;5049256;28;20032;-50
2023/09/20 04:58:58;;;;;;;9.48;3.20;;;;;;;15.17;100.00;100656.22;5041757;28;20387;-52
2023/09/20 05:01:24;;;;;;;6.65;3.00;;;;;;;15.15;100.00;100664.41;5052012;28;20487;-50
2023/09/20 05:03:50;;;;;;;13.57;3.58;;;;;;;15.14;100.00;100657.38;5044596;28;20045;-51
2023/09/20 05:06:16;;;;;;;8.85;3.00;;;;;;;15.12;100.00;100650.47;5055783;28;20083;-51
2023/09/20 05:08:42;;;;;;;9.48;3.13;;;;;;;15.09;100.00;100651.63;5045204;28;20454;-50
2023/09/20 05:11:10;;;;;;;8.80;3.10;;;;;;;15.09;100.00;100640.13;5058328;28;20032;-49
2023/09/20 05:13:36;;;;;;;6.10;3.08;;;;;;;15.08;100.00;100651.78;5051273;28;20452;-49
2023/09/20 05:16:03;;;;;;;7.75;2.95;;;;;;;15.08;100.00;100655.28;5048540;28;20111;-49
2023/09/20 05:18:29;;;;;;;10.73;3.10;;;;;;;15.08;100.00;100651.78;5051140;28;20032;-50
2023/09/20 05:20:54;;;;;;;8.00;2.75;;;;;;;15.08;100.00;100657.13;5050842;28;20029;-50
2023/09/20 05:23:19;;;;;;;11.07;3.05;;;;;;;15.07;100.00;100663.47;5050001;28;20025;-50
2023/09/20 05:25:45;;;;;;;8.30;3.15;;;;;;;15.06;100.00;100664.47;5051232;28;20115;-51
2023/09/20 05:28:11;;;;;;;12.60;3.38;;;;;;;15.05;100.00;100657.44;5049908;28;20374;-50
2023/09/20 05:30:37;;;;;;;11.15;3.35;;;;;;;15.04;100.00;100656.59;5052812;28;20449;-52
2023/09/20 05:33:04;;;;;;;8.30;3.75;;;;;;;15.03;100.00;100651.41;5054742;28;20037;-50
2023/09/20 05:35:29;;;;;;;9.73;3.85;;;;;;;15.03;100.00;100646.88;5041313;28;20029;-51
2023/09/20 05:37:54;;;;;;;9.15;3.53;;;;;;;15.03;100.00;100649.56;5041165;28;20033;-51
2023/09/20 05:40:21;;;;;;;7.82;3.78;;;;;;;15.02;100.00;100636.34;5041349;28;20030;-50
2023/09/20 05:42:49;;;;;;;8.15;3.70;;;;;;;15.02;100.00;100649.72;5045513;28;20057;-50
2023/09/20 05:45:14;;;;;;;12.00;4.07;;;;;;;15.02;100.00;100641.69;5047014;28;20050;-52
2023/09/20 05:47:40;;;;;;;7.15;3.88;;;;;;;15.01;100.00;100640.03;5046732;28;20021;-50
2023/09/20 05:50:14;;;;;;;7.70;3.72;;;;;;;15.02;100.00;100633.66;5049061;28;20026;-50
2023/09/20 05:52:43;;;;;;;5.57;3.47;;;;;;;15.02;100.00;100636.34;5047580;28;20021;-50
2023/09/20 05:55:13;;;;;;;7.78;3.22;;;;;;;15.02;100.00;100633.66;5042345;28;20025;-50
2023/09/20 05:57:42;;;;;;;9.27;3.30;;;;;;;15.02;100.00;100636.34;5041498;28;20029;-50
2023/09/20 06:00:12;;;;;;;8.50;3.22;;;;;;;15.03;100.00;100640.72;5037420;28;20025;-50
2023/09/20 06:02:37;;;;;;;9.93;3.10;;;;;;;15.04;100.00;100647.72;5049066;28;20029;-50
2023/09/20 06:05:03;;;;;;;9.32;3.33;;;;;;;15.06;100.00;100651.09;5044264;28;20022;-51
2023/09/20 06:07:30;;;;;;;6.18;3.20;;;;;;;15.07;100.00;100648.28;5042818;28;20029;-50
2023/09/20 06:09:55;;;;;;;7.93;3.10;;;;;;;15.10;100.00;100642.59;5044817;28;20032;-50
2023/09/20 06:12:20;;;;;;;6.47;3.13;;;;;;;15.12;100.00;100637.09;5046175;28;20033;-51
2023/09/20 06:14:46;;;;;;;6.05;2.95;;;;;;;15.14;100.00;100635.97;5048907;28;20430;-50
2023/09/20 06:17:12;;;;;;;10.25;3.20;;;;;;;15.16;100.00;100635.81;5044481;28;20630;-50
2023/09/20 06:19:38;;;;;;;8.40;2.80;;;;;;;15.20;100.00;100633.69;5040792;28;20434;-50
2023/09/20 06:22:03;;;;;;;9.68;3.00;;;;;;;15.22;100.00;100639.72;5048549;28;20111;-49
2023/09/20 06:24:28;;;;;;;7.70;2.67;;;;;;;15.26;100.00;100638.44;5050085;28;20471;-50
2023/09/20 06:26:54;;;;;;;8.10;3.40;;;;;;;15.27;100.00;100637.41;5045825;28;20072;-51
2023/09/20 06:29:20;;;;;;;8.32;3.38;;;;;;;15.26;100.00;100631.22;5040262;28;20034;-51
2023/09/20 06:31:45;;;;;;;7.75;2.70;;;;;;;15.31;100.00;100634.28;5049638;28;21101;-51
2023/09/20 06:34:14;;;;;;;5.88;2.70;;;;;;;15.36;100.00;100642.69;5051349;28;20057;-51
2023/09/20 06:36:39;;;;;;;12.75;3.45;;;;;;;15.41;100.00;100641.41;5047576;28;20037;-50
2023/09/20 06:39:08;;;;;;;6.17;2.60;;;;;;;15.44;100.00;100644.59;5047960;28;20132;-52
2023/09/20 06:41:33;;;;;;;5.78;3.30;;;;;;;15.48;100.00;100648.63;5044032;28;20291;-50
2023/09/20 06:43:58;;;;;;;7.05;2.83;;;;;;;15.52;100.00;100642.00;5047306;28;20053;-51
2023/09/20 06:46:24;;;;;;;5.18;2.80;;;;;;;15.58;100.00;100637.84;5046253;28;20031;-50
2023/09/20 06:48:49;;;;;;;8.48;2.83;;;;;;;15.64;100.00;100639.09;5040611;28;20022;-50
2023/09/20 06:51:17;;;;;;;6.05;2.63;;;;;;;15.68;100.00;100643.94;5045243;28;20024;-51
2023/09/20 06:53:42;;;;;;;7.80;2.70;;;;;;;15.77;100.00;100641.38;5044310;28;20035;-50
2023/09/20 06:56:08;;;;;;;7.20;2.67;;;;;;;15.82;100.00;100645.28;5042284;28;20021;-50
2023/09/20 06:58:34;;;;;;;4.13;2.40;;;;;;;15.90;100.00;100645.34;5036864;28;20033;-52
2023/09/20 07:00:59;;;;;;;9.45;2.90;;;;;;;15.98;100.00;100641.00;5043986;28;20048;-50
2023/09/20 07:03:25;;;;;;;6.45;2.40;;;;;;;16.05;100.00;100639.38;5044399;28;20139;-50
2023/09/20 07:05:51;;;;;;;8.55;2.63;;;;;;;16.14;100.00;100648.28;5050950;28;20056;-50
2023/09/20 07:08:18;;;;;;;6.65;2.60;;;;;;;16.20;100.00;100644.97;5047822;28;20032;-53
2023/09/20 07:10:45;;;;;;;4.82;2.70;;;;;;;16.28;100.00;100645.84;5046759;28;20084;-52
2023/09/20 07:13:11;;;;;;;5.18;2.75;;;;;;;16.37;100.00;100636.03;5041230;28;20565;-51
2023/09/20 07:15:36;;;;;;;6.70;3.20;;;;;;;16.46;100.00;100631.56;5049225;28;20107;-52
2023/09/20 07:18:11;;;;;;;5.60;2.65;;;;;;;16.55;100.00;100621.69;5043982;28;20111;-51
2023/09/20 07:20:40;;;;;;;6.68;2.45;;;;;;;16.64;100.00;100634.13;5044254;28;20029;-52
2023/09/20 07:23:08;;;;;;;5.25;2.50;;;;;;;16.76;100.00;100637.34;5051068;28;20028;-50
2023/09/20 07:25:38;;;;;;;4.93;2.88;;;;;;;16.91;100.00;100633.06;5054232;28;20057;-51
2023/09/20 07:28:06;;;;;;;8.25;2.90;;;;;;;17.08;100.00;100630.41;5048766;28;20047;-52
2023/09/20 07:30:34;;;;;;;7.30;2.40;;;;;;;17.17;100.00;100637.50;5049175;28;20108;-50
2023/09/20 07:33:03;;;;;;;7.47;2.70;;;;;;;17.26;100.00;100638.31;5040028;28;20472;-52
2023/09/20 07:35:38;;;;;;;7.32;2.92;;;;;;;17.35;99.77;100637.31;5034959;28;20044;-50
2023/09/20 07:38:12;;;;;;;4.00;2.25;;;;;;;17.39;99.34;100639.50;5038935;28;20448;-52
2023/09/20 07:40:38;;;;;;;6.85;2.60;;;;;;;17.43;98.27;100645.38;5034432;28;20021;-52
2023/09/20 07:43:07;;;;;;;6.45;2.75;;;;;;;17.51;100.00;100636.50;5031424;28;20467;-50
2023/09/20 07:45:38;;;;;;;7.13;2.40;;;;;;;17.57;98.08;100644.72;5034291;28;20037;-51
2023/09/20 07:48:11;;;;;;;8.82;2.85;;;;;;;17.66;98.46;100633.97;5038383;28;20022;-50
2023/09/20 07:50:40;;;;;;;6.93;2.35;;;;;;;17.70;97.55;100641.53;5037877;28;20035;-50
2023/09/20 07:53:10;;;;;;;5.32;2.47;;;;;;;17.81;97.06;100640.31;5037365;28;20037;-51
2023/09/20 07:55:44;;;;;;;5.85;2.63;;;;;;;17.87;97.33;100637.00;5032110;28;20033;-52
2023/09/20 07:58:10;;;;;;;6.30;3.22;;;;;;;17.91;95.49;100627.56;5040472;28;20122;-50
2023/09/20 08:00:41;;;;;;;6.47;2.70;;;;;;;18.02;95.58;100626.38;5042433;28;20584;-50
2023/09/20 08:03:06;;;;;;;6.95;2.90;;;;;;;18.10;93.85;100622.81;5041011;28;20039;-51
2023/09/20 08:05:33;;;;;;;7.47;2.70;;;;;;;18.17;94.82;100629.22;5041807;28;20024;-51
2023/09/20 08:07:58;;;;;;;5.57;2.38;;;;;;;18.23;94.39;100628.50;5052817;28;20072;-50
2023/09/20 08:10:24;;;;;;;6.28;2.95;;;;;;;18.37;93.28;100634.16;5043398;28;20493;-49
2023/09/20 08:12:49;;;;;;;5.63;2.80;;;;;;;18.40;93.12;100634.66;5046438;28;20048;-49
2023/09/20 08:15:14;;;;;;;5.05;2.60;;;;;;;18.47;92.86;100634.81;5045625;28;20029;-48
2023/09/20 08:20:24;;;;;;;7.30;3.50;;;;;;;18.67;91.05;100643.31;5047927;28;20032;-48
2023/09/20 09:01:19;;;;;;;6.72;2.40;;;;;;;20.27;82.65;100648.78;5050266;28;20039;-48
2023/09/20 09:03:45;;;;;;;6.60;2.65;;;;;;;20.28;81.61;100653.19;5041609;28;20029;-48
2023/09/20 09:06:11;;;;;;;5.38;2.28;;;;;;;20.30;83.08;100644.88;5044479;28;20033;-48
2023/09/20 09:08:36;;;;;;;7.43;2.80;;;;;;;20.31;82.28;100646.56;5047267;28;20036;-48
2023/09/20 09:11:01;;;;;;;4.63;2.33;;;;;;;20.35;82.54;100650.56;5043083;28;20022;-48
2023/09/20 09:13:28;;;;;;;24.73;8.48;;;;;;;20.33;82.46;100644.50;5038715;28;20056;-48
2023/09/20 09:15:54;;;;;;;9.80;3.47;;;;;;;20.33;82.73;100648.06;5049360;28;20072;-48
2023/09/20 09:18:21;;;;;;;6.28;2.88;;;;;;;20.37;81.71;100653.91;5030818;28;20044;-49
2023/09/20 09:20:47;;;;;;;7.88;2.20;;;;;;;20.28;82.12;100652.31;5048983;28;20136;-48
2023/09/20 09:23:33;;;;;;;6.72;2.60;;;;;;;20.29;82.05;100643.22;5047928;28;20052;-49
2023/09/20 09:25:58;;;;;;;9.02;2.75;;;;;;;20.26;81.38;100646.28;5045787;28;20029;-48
2023/09/20 09:28:25;;;;;;;6.00;2.33;;;;;;;20.31;82.00;100649.25;5052423;28;20390;-48
2023/09/20 09:30:53;;;;;;;5.18;2.30;;;;;;;20.42;82.50;100647.97;5050384;28;20025;-48
2023/09/20 09:33:19;;;;;;;7.30;2.40;;;;;;;20.48;80.54;100653.44;5055176;28;20479;-49
2023/09/20 09:35:48;;;;;;;6.40;2.13;;;;;;;20.51;81.84;100644.94;5047445;28;20028;-48
2023/09/20 09:38:20;;;;;;;8.82;2.45;;;;;;;20.54;82.09;100641.06;5049534;28;20608;-48
2023/09/20 09:40:56;;;;;;;5.03;2.10;;;;;;;20.65;82.09;100640.59;5042950;28;20112;-48
2023/09/20 09:43:23;;;;;;;7.35;2.38;;;;;;;20.72;79.11;100647.94;5047112;28;20045;-49
2023/09/20 09:45:53;;;;;;;5.25;1.85;;;;;;;20.75;79.84;100639.47;5049214;28;20126;-48
2023/09/20 09:48:20;;;;;;;3.67;2.03;;;;;;;20.84;79.73;100641.03;5048461;28;20036;-48
2023/09/20 09:50:46;;;;;;;7.68;2.40;;;;;;;20.85;79.05;100630.03;5046916;28;20029;-49
2023/09/20 09:53:15;;;;;;;8.05;1.85;;;;;;;20.88;77.75;100629.66;5047359;28;20021;-49
2023/09/20 09:55:41;;;;;;;;;;;;;;;21.06;81.17;100631.09;5047278;28;20372;-49
2023/09/20 09:58:09;;;;;;;7.47;2.17;;;;;;;21.12;78.64;100616.81;5040583;28;19916;-48
2023/09/20 10:00:36;;;;;;;5.82;2.10;;;;;;;21.26;79.04;100617.78;5048622;28;20204;-48
2023/09/20 10:03:15;;;;;;;7.75;2.35;;;;;;;21.29;78.03;100613.88;5041545;28;20044;-48
2023/09/20 10:05:43;;;;;;;4.18;1.90;;;;;;;21.31;76.59;100619.91;5050352;28;20033;-48
2023/09/20 10:08:12;;;;;;;5.28;2.17;;;;;;;21.41;76.61;100609.59;5044591;28;20099;-49
2023/09/20 10:10:37;;;;;;;;;;;;;;;21.55;79.22;100627.63;5049704;28;20116;-48
2023/09/20 10:13:03;;;;;;;7.40;2.03;;;;;;;21.52;76.42;100613.69;5046868;28;19940;-49
2023/09/20 10:15:32;;;;;;;5.07;1.92;;;;;;;21.55;75.58;100610.56;5048760;28;20047;-48
2023/09/20 10:17:59;;;;;;;4.38;2.00;;;;;;;21.69;76.42;100611.53;5048869;28;20467;-49
2023/09/20 10:20:54;;;;;;;7.10;2.25;;;;;;;21.88;75.31;100608.09;5049914;28;20044;-48
2023/09/20 10:23:22;;;;;;;5.25;1.92;;;;;;;21.93;71.90;100619.19;5052197;28;20083;-48
2023/09/20 10:25:48;;;;;;;6.95;1.73;;;;;;;21.97;72.00;100598.00;5052111;28;20022;-48
2023/09/20 10:28:17;;;;;;;6.78;2.00;;;;;;;22.07;72.77;100598.47;5038184;28;20045;-48
2023/09/20 10:31:03;;;;;;;;;;;;;;;22.20;74.57;100591.44;5057426;28;20067;-48
2023/09/20 10:33:45;;;;;;;7.22;2.03;;;;;;;22.25;71.35;100603.34;5047400;28;20099;-48
2023/09/20 10:36:31;;;;;;;7.93;2.05;;;;;;;22.32;70.72;100596.13;5051037;28;20040;-49
2023/09/20 10:39:18;;;;;;;6.68;1.88;;;;;;;22.55;72.80;100581.44;5054471;28;20110;-48
2023/09/20 10:41:45;;;;;;;10.38;2.38;;;;;;;22.68;72.34;100573.38;5052707;28;20068;-48
2023/09/20 10:44:31;;;;;;;6.85;1.90;;;;;;;22.76;70.51;100575.03;5053465;28;20064;-48
2023/09/20 10:47:00;;;;;;;9.93;1.60;;;;;;;22.70;68.32;100579.41;5049514;28;20025;-50
2023/09/20 10:49:42;;;;;;;7.60;2.35;;;;;;;22.75;69.95;100576.09;5048460;28;20037;-48
2023/09/20 10:52:10;;;;;;;5.97;1.73;;;;;;;22.67;69.21;100582.50;5052640;28;20441;-48
2023/09/20 10:54:39;;;;;;;6.63;1.80;;;;;;;22.68;68.14;100567.97;5044990;28;20517;-50
2023/09/20 10:57:07;;;;;;;;;;;;;;;22.82;71.00;100571.53;5048155;28;20029;-48
2023/09/20 10:59:34;;;;;;;8.53;1.60;;;;;;;22.81;68.69;100577.97;5049918;28;19905;-48
2023/09/20 11:02:07;;;;;;;7.22;1.60;;;;;;;22.81;68.54;100569.84;5051754;28;20389;-48
2023/09/20 11:04:34;;;;;;;5.95;1.50;;;;;;;22.72;68.26;100563.78;5050128;28;20036;-48
2023/09/20 11:07:02;;;;;;;4.97;1.45;;;;;;;22.82;67.84;100557.97;5056653;28;20036;-48
2023/09/20 11:09:38;;;;;;;10.32;1.95;;;;;;;22.86;68.06;100555.69;5050303;28;20033;-49
2023/09/20 11:12:09;;;;;;;13.90;2.45;;;;;;;22.82;67.43;100563.41;5046997;28;20045;-48
2023/09/20 11:14:39;;;;;;;7.10;1.67;;;;;;;22.78;68.35;100561.28;5042628;28;20515;-48
2023/09/20 11:17:05;;;;;;;11.05;2.03;;;;;;;22.72;66.56;100560.25;5036246;28;20554;-47
2023/09/20 11:19:32;;;;;;;13.13;1.70;;;;;;;22.80;66.83;100564.63;5047103;28;20152;-47
2023/09/20 11:21:58;;;;;;;7.30;1.90;;;;;;;22.83;66.17;100558.81;5040321;28;21047;-48
2023/09/20 11:24:25;;;;;;;13.10;2.17;;;;;;;22.88;66.81;100557.16;5044962;28;20029;-48
2023/09/20 11:26:55;;;;;;;9.07;1.80;;;;;;;22.86;65.22;100558.41;5043932;28;20388;-46
2023/09/20 11:29:21;;;;;;;3.90;1.50;;;;;;;22.81;65.82;100560.88;5046195;28;20482;-48
2023/09/20 11:31:48;;;;;;;11.65;1.92;;;;;;;22.69;64.63;100564.19;5041754;28;20090;-47
2023/09/20 11:34:14;;;;;;;7.72;2.22;;;;;;;22.61;66.58;100556.25;5045378;28;20025;-47
2023/09/20 11:36:44;;;;;;;10.52;1.88;;;;;;;22.58;66.94;100556.66;5046756;28;20040;-48
2023/09/20 11:39:09;;;;;;;7.88;2.25;;;;;;;22.53;66.25;100559.13;5045034;28;20476;-48
2023/09/20 11:41:37;;;;;;;14.13;2.13;;;;;;;22.52;65.67;100561.03;5046969;28;20027;-48
2023/09/20 11:44:05;;;;;;;8.35;1.38;;;;;;;22.54;66.52;100560.81;5050966;28;20085;-47
2023/09/20 11:46:35;;;;;;;11.10;1.60;;;;;;;22.47;66.48;100552.69;5047344;28;20043;-49
2023/09/20 11:49:02;;;;;;;6.18;1.75;;;;;;;22.58;66.96;100563.94;5041866;28;20287;-48
2023/09/20 11:51:36;;;;;;;7.20;1.77;;;;;;;22.51;67.64;100556.63;5042560;28;20071;-49
2023/09/20 11:54:05;;;;;;;7.25;1.83;;;;;;;22.45;66.21;100554.75;5047361;28;20022;-49
2023/09/20 11:56:33;;;;;;;6.63;1.55;;;;;;;22.41;66.83;100563.47;5046119;28;20036;-49
2023/09/20 11:59:00;;;;;;;7.88;1.80;;;;;;;22.37;67.26;100567.66;5047232;28;20044;-48
2023/09/20 12:01:30;;;;;;;3.92;1.52;;;;;;;22.34;66.86;100569.69;5041721;28;20026;-48
2023/09/20 12:03:56;;;;;;;5.53;1.67;;;;;;;22.28;67.00;100567.81;5039795;28;20024;-49
2023/09/20 12:06:21;;;;;;;7.28;1.48;;;;;;;22.28;67.64;100565.13;5038755;28;20064;-47
2023/09/20 12:08:47;;;;;;;8.75;1.77;;;;;;;22.29;68.05;100564.06;5046813;28;20060;-49